sensor_id;sensor_type;location;lat;lon;timestamp;P1;durP1;ratioP1;P2;durP2;ratioP2
71475;SDS011;59286;59.274;17.974;2023-03-21T00:02:21;202.50;;;8.32;;
71475;SDS011;59286;59.274;17.974;2023-03-21T00:04:48;73.72;;;7.22;;
71475;SDS011;59286;59.274;17.974;2023-03-21T00:07:13;55.90;;;6.00;;
71475;SDS011;59286;59.274;17.974;2023-03-21T00:09:39;155.23;;;7.65;;
71475;SDS011;59286;59.274;17.974;2023-03-21T00:12:04;270.75;;;10.27;;
71475;SDS011;59286;59.274;17.974;2023-03-21T00:14:33;67.57;;;8.05;;
71475;SDS011;59286;59.274;17.974;2023-03-21T00:17:02;73.65;;;11.20;;
71475;SDS011;59286;59.274;17.974;2023-03-21T00:19:28;89.13;;;9.13;;
71475;SDS011;59286;59.274;17.974;2023-03-21T00:21:54;56.67;;;7.20;;
71475;SDS011;59286;59.274;17.974;2023-03-21T00:24:20;126.78;;;7.28;;
71475;SDS011;59286;59.274;17.974;2023-03-21T00:26:46;129.50;;;9.07;;
71475;SDS011;59286;59.274;17.974;2023-03-21T00:29:12;98.05;;;11.25;;
71475;SDS011;59286;59.274;17.974;2023-03-21T00:31:37;129.40;;;9.13;;
71475;SDS011;59286;59.274;17.974;2023-03-21T00:34:02;141.05;;;13.40;;
71475;SDS011;59286;59.274;17.974;2023-03-21T00:36:28;199.45;;;14.77;;
71475;SDS011;59286;59.274;17.974;2023-03-21T00:38:53;53.90;;;9.10;;
71475;SDS011;59286;59.274;17.974;2023-03-21T00:41:18;112.93;;;12.25;;
71475;SDS011;59286;59.274;17.974;2023-03-21T00:43:44;164.57;;;8.20;;
71475;SDS011;59286;59.274;17.974;2023-03-21T00:46:10;93.75;;;7.63;;
71475;SDS011;59286;59.274;17.974;2023-03-21T00:48:35;57.22;;;7.93;;
71475;SDS011;59286;59.274;17.974;2023-03-21T00:51:01;184.30;;;8.23;;
71475;SDS011;59286;59.274;17.974;2023-03-21T00:53:26;172.95;;;8.48;;
71475;SDS011;59286;59.274;17.974;2023-03-21T00:55:53;152.32;;;6.80;;
71475;SDS011;59286;59.274;17.974;2023-03-21T00:58:18;218.27;;;10.55;;
71475;SDS011;59286;59.274;17.974;2023-03-21T01:00:43;62.83;;;8.07;;
71475;SDS011;59286;59.274;17.974;2023-03-21T01:03:11;199.75;;;12.48;;
71475;SDS011;59286;59.274;17.974;2023-03-21T01:05:39;185.55;;;9.63;;
71475;SDS011;59286;59.274;17.974;2023-03-21T01:08:42;129.73;;;7.85;;
71475;SDS011;59286;59.274;17.974;2023-03-21T01:11:09;112.57;;;7.20;;
71475;SDS011;59286;59.274;17.974;2023-03-21T01:13:37;291.17;;;11.45;;
71475;SDS011;59286;59.274;17.974;2023-03-21T01:16:03;176.48;;;7.55;;
71475;SDS011;59286;59.274;17.974;2023-03-21T01:18:30;182.70;;;10.23;;
71475;SDS011;59286;59.274;17.974;2023-03-21T01:20:57;280.92;;;11.27;;
71475;SDS011;59286;59.274;17.974;2023-03-21T01:23:24;150.88;;;5.57;;
71475;SDS011;59286;59.274;17.974;2023-03-21T01:25:51;157.73;;;6.18;;
71475;SDS011;59286;59.274;17.974;2023-03-21T01:28:17;155.50;;;6.75;;
71475;SDS011;59286;59.274;17.974;2023-03-21T01:30:46;255.75;;;10.75;;
71475;SDS011;59286;59.274;17.974;2023-03-21T01:33:13;85.57;;;5.45;;
71475;SDS011;59286;59.274;17.974;2023-03-21T01:35:40;124.00;;;7.70;;
71475;SDS011;59286;59.274;17.974;2023-03-21T01:38:06;298.10;;;11.55;;
71475;SDS011;59286;59.274;17.974;2023-03-21T01:40:31;195.00;;;7.70;;
71475;SDS011;59286;59.274;17.974;2023-03-21T01:42:57;223.23;;;7.35;;
71475;SDS011;59286;59.274;17.974;2023-03-21T01:48:45;156.80;;;5.72;;
71475;SDS011;59286;59.274;17.974;2023-03-21T01:51:14;161.70;;;9.25;;
71475;SDS011;59286;59.274;17.974;2023-03-21T01:53:41;172.98;;;7.10;;
71475;SDS011;59286;59.274;17.974;2023-03-21T01:58:47;239.18;;;9.43;;
71475;SDS011;59286;59.274;17.974;2023-03-21T02:01:14;238.77;;;9.63;;
71475;SDS011;59286;59.274;17.974;2023-03-21T02:03:41;121.85;;;7.72;;
71475;SDS011;59286;59.274;17.974;2023-03-21T02:06:28;176.48;;;9.45;;
71475;SDS011;59286;59.274;17.974;2023-03-21T02:08:58;300.80;;;11.95;;
71475;SDS011;59286;59.274;17.974;2023-03-21T02:11:26;79.63;;;6.07;;
71475;SDS011;59286;59.274;17.974;2023-03-21T02:13:53;160.82;;;7.53;;
71475;SDS011;59286;59.274;17.974;2023-03-21T02:27:31;227.60;;;6.68;;
71475;SDS011;59286;59.274;17.974;2023-03-21T02:33:06;127.03;;;7.60;;
71475;SDS011;59286;59.274;17.974;2023-03-21T02:38:46;9.10;;;5.40;;
71475;SDS011;59286;59.274;17.974;2023-03-21T02:41:38;186.32;;;12.30;;
71475;SDS011;59286;59.274;17.974;2023-03-21T02:44:22;112.63;;;10.63;;
71475;SDS011;59286;59.274;17.974;2023-03-21T02:47:17;178.57;;;10.35;;
71475;SDS011;59286;59.274;17.974;2023-03-21T02:49:55;165.82;;;9.52;;
71475;SDS011;59286;59.274;17.974;2023-03-21T02:52:31;93.18;;;8.07;;
71475;SDS011;59286;59.274;17.974;2023-03-21T02:54:59;66.43;;;4.72;;
71475;SDS011;59286;59.274;17.974;2023-03-21T02:57:29;143.43;;;8.70;;
71475;SDS011;59286;59.274;17.974;2023-03-21T02:59:56;99.28;;;8.63;;
71475;SDS011;59286;59.274;17.974;2023-03-21T03:02:23;68.20;;;7.07;;
71475;SDS011;59286;59.274;17.974;2023-03-21T03:04:51;11.77;;;3.97;;
71475;SDS011;59286;59.274;17.974;2023-03-21T03:07:20;35.90;;;6.85;;
71475;SDS011;59286;59.274;17.974;2023-03-21T03:10:13;61.75;;;7.57;;
71475;SDS011;59286;59.274;17.974;2023-03-21T03:12:57;44.95;;;5.60;;
71475;SDS011;59286;59.274;17.974;2023-03-21T03:15:39;39.10;;;5.88;;
71475;SDS011;59286;59.274;17.974;2023-03-21T03:19:10;17.40;;;4.70;;
71475;SDS011;59286;59.274;17.974;2023-03-21T03:21:16;46.55;;;6.00;;
71475;SDS011;59286;59.274;17.974;2023-03-21T03:26:35;60.38;;;7.35;;
71475;SDS011;59286;59.274;17.974;2023-03-21T03:29:08;40.85;;;6.90;;
71475;SDS011;59286;59.274;17.974;2023-03-21T03:31:41;97.60;;;7.47;;
71475;SDS011;59286;59.274;17.974;2023-03-21T03:34:14;76.13;;;8.00;;
71475;SDS011;59286;59.274;17.974;2023-03-21T03:36:46;77.75;;;6.85;;
71475;SDS011;59286;59.274;17.974;2023-03-21T03:39:15;197.13;;;11.00;;
71475;SDS011;59286;59.274;17.974;2023-03-21T03:41:46;208.02;;;10.93;;
71475;SDS011;59286;59.274;17.974;2023-03-21T03:44:16;277.15;;;13.52;;
71475;SDS011;59286;59.274;17.974;2023-03-21T03:49:36;156.40;;;8.23;;
71475;SDS011;59286;59.274;17.974;2023-03-21T03:52:08;99.68;;;6.65;;
71475;SDS011;59286;59.274;17.974;2023-03-21T03:54:42;282.38;;;12.52;;
71475;SDS011;59286;59.274;17.974;2023-03-21T03:57:09;50.67;;;6.13;;
71475;SDS011;59286;59.274;17.974;2023-03-21T03:59:38;267.92;;;13.55;;
71475;SDS011;59286;59.274;17.974;2023-03-21T04:02:05;201.10;;;11.10;;
71475;SDS011;59286;59.274;17.974;2023-03-21T04:04:31;208.02;;;7.20;;
71475;SDS011;59286;59.274;17.974;2023-03-21T04:06:58;217.48;;;13.18;;
71475;SDS011;59286;59.274;17.974;2023-03-21T04:09:23;56.30;;;7.57;;
71475;SDS011;59286;59.274;17.974;2023-03-21T04:11:52;272.45;;;13.43;;
71475;SDS011;59286;59.274;17.974;2023-03-21T04:14:18;171.20;;;8.40;;
71475;SDS011;59286;59.274;17.974;2023-03-21T04:16:43;152.48;;;9.60;;
71475;SDS011;59286;59.274;17.974;2023-03-21T04:19:08;149.00;;;9.90;;
71475;SDS011;59286;59.274;17.974;2023-03-21T04:21:34;177.00;;;11.65;;
71475;SDS011;59286;59.274;17.974;2023-03-21T04:23:59;139.98;;;10.27;;
71475;SDS011;59286;59.274;17.974;2023-03-21T04:26:25;295.42;;;11.88;;
71475;SDS011;59286;59.274;17.974;2023-03-21T04:28:56;222.40;;;8.30;;
71475;SDS011;59286;59.274;17.974;2023-03-21T04:31:24;255.80;;;7.13;;
71475;SDS011;59286;59.274;17.974;2023-03-21T04:33:52;143.95;;;8.82;;
71475;SDS011;59286;59.274;17.974;2023-03-21T04:36:19;127.10;;;8.52;;
71475;SDS011;59286;59.274;17.974;2023-03-21T04:38:50;146.40;;;7.70;;
71475;SDS011;59286;59.274;17.974;2023-03-21T04:41:16;246.88;;;12.70;;
71475;SDS011;59286;59.274;17.974;2023-03-21T04:43:41;115.30;;;8.88;;
71475;SDS011;59286;59.274;17.974;2023-03-21T04:46:08;38.28;;;5.15;;
71475;SDS011;59286;59.274;17.974;2023-03-21T04:48:34;99.97;;;10.05;;
71475;SDS011;59286;59.274;17.974;2023-03-21T04:50:59;155.32;;;11.02;;
71475;SDS011;59286;59.274;17.974;2023-03-21T04:53:24;130.18;;;9.43;;
71475;SDS011;59286;59.274;17.974;2023-03-21T04:55:50;174.75;;;15.20;;
71475;SDS011;59286;59.274;17.974;2023-03-21T04:58:16;124.35;;;13.35;;
71475;SDS011;59286;59.274;17.974;2023-03-21T05:00:41;113.85;;;12.02;;
71475;SDS011;59286;59.274;17.974;2023-03-21T05:03:07;188.23;;;15.45;;
71475;SDS011;59286;59.274;17.974;2023-03-21T05:05:33;144.27;;;12.38;;
71475;SDS011;59286;59.274;17.974;2023-03-21T05:08:02;78.03;;;8.45;;
71475;SDS011;59286;59.274;17.974;2023-03-21T05:10:28;85.57;;;8.48;;
71475;SDS011;59286;59.274;17.974;2023-03-21T05:12:53;205.60;;;16.13;;
71475;SDS011;59286;59.274;17.974;2023-03-21T05:15:18;166.45;;;12.27;;
71475;SDS011;59286;59.274;17.974;2023-03-21T05:17:44;310.65;;;16.08;;
71475;SDS011;59286;59.274;17.974;2023-03-21T05:20:12;257.75;;;13.30;;
71475;SDS011;59286;59.274;17.974;2023-03-21T05:22:41;175.88;;;11.75;;
71475;SDS011;59286;59.274;17.974;2023-03-21T05:25:10;177.60;;;12.35;;
71475;SDS011;59286;59.274;17.974;2023-03-21T05:27:36;218.18;;;11.80;;
71475;SDS011;59286;59.274;17.974;2023-03-21T05:32:28;254.75;;;14.25;;
71475;SDS011;59286;59.274;17.974;2023-03-21T05:34:54;127.57;;;8.95;;
71475;SDS011;59286;59.274;17.974;2023-03-21T05:37:19;109.35;;;7.78;;
71475;SDS011;59286;59.274;17.974;2023-03-21T05:39:44;126.55;;;7.93;;
71475;SDS011;59286;59.274;17.974;2023-03-21T05:42:10;64.60;;;4.65;;
71475;SDS011;59286;59.274;17.974;2023-03-21T05:44:35;201.27;;;9.30;;
71475;SDS011;59286;59.274;17.974;2023-03-21T05:47:01;234.60;;;11.65;;
71475;SDS011;59286;59.274;17.974;2023-03-21T05:49:28;191.60;;;8.60;;
71475;SDS011;59286;59.274;17.974;2023-03-21T05:51:54;204.20;;;9.82;;
71475;SDS011;59286;59.274;17.974;2023-03-21T05:54:20;229.15;;;12.77;;
71475;SDS011;59286;59.274;17.974;2023-03-21T05:56:45;148.75;;;8.57;;
71475;SDS011;59286;59.274;17.974;2023-03-21T05:59:10;352.45;;;15.52;;
71475;SDS011;59286;59.274;17.974;2023-03-21T06:01:36;121.20;;;5.72;;
71475;SDS011;59286;59.274;17.974;2023-03-21T06:04:01;182.30;;;13.52;;
71475;SDS011;59286;59.274;17.974;2023-03-21T06:06:26;284.75;;;15.30;;
71475;SDS011;59286;59.274;17.974;2023-03-21T06:08:52;309.40;;;14.90;;
71475;SDS011;59286;59.274;17.974;2023-03-21T06:11:25;150.43;;;11.65;;
71475;SDS011;59286;59.274;17.974;2023-03-21T06:16:18;77.60;;;7.53;;
71475;SDS011;59286;59.274;17.974;2023-03-21T06:18:43;93.40;;;9.60;;
71475;SDS011;59286;59.274;17.974;2023-03-21T06:21:09;153.85;;;10.32;;
71475;SDS011;59286;59.274;17.974;2023-03-21T06:23:34;145.30;;;14.27;;
71475;SDS011;59286;59.274;17.974;2023-03-21T06:26:00;113.03;;;9.30;;
71475;SDS011;59286;59.274;17.974;2023-03-21T06:28:26;96.88;;;11.88;;
71475;SDS011;59286;59.274;17.974;2023-03-21T06:30:51;97.85;;;8.55;;
71475;SDS011;59286;59.274;17.974;2023-03-21T06:33:16;151.50;;;15.07;;
71475;SDS011;59286;59.274;17.974;2023-03-21T06:35:42;138.07;;;15.15;;
71475;SDS011;59286;59.274;17.974;2023-03-21T06:38:07;143.77;;;12.00;;
71475;SDS011;59286;59.274;17.974;2023-03-21T06:40:33;280.33;;;17.63;;
71475;SDS011;59286;59.274;17.974;2023-03-21T06:42:58;110.68;;;9.40;;
71475;SDS011;59286;59.274;17.974;2023-03-21T06:45:24;270.10;;;18.80;;
71475;SDS011;59286;59.274;17.974;2023-03-21T06:47:49;79.18;;;11.05;;
71475;SDS011;59286;59.274;17.974;2023-03-21T06:50:15;76.18;;;9.95;;
71475;SDS011;59286;59.274;17.974;2023-03-21T06:52:41;115.80;;;13.75;;
71475;SDS011;59286;59.274;17.974;2023-03-21T06:55:06;92.43;;;12.20;;
71475;SDS011;59286;59.274;17.974;2023-03-21T06:57:33;154.18;;;10.98;;
71475;SDS011;59286;59.274;17.974;2023-03-21T06:59:58;229.73;;;12.63;;
71475;SDS011;59286;59.274;17.974;2023-03-21T07:02:23;172.13;;;14.48;;
71475;SDS011;59286;59.274;17.974;2023-03-21T07:04:48;197.43;;;13.60;;
71475;SDS011;59286;59.274;17.974;2023-03-21T07:07:14;133.88;;;12.65;;
71475;SDS011;59286;59.274;17.974;2023-03-21T07:09:40;155.52;;;12.70;;
71475;SDS011;59286;59.274;17.974;2023-03-21T07:12:06;100.55;;;11.60;;
71475;SDS011;59286;59.274;17.974;2023-03-21T07:14:31;93.85;;;8.30;;
71475;SDS011;59286;59.274;17.974;2023-03-21T07:16:58;146.93;;;11.93;;
71475;SDS011;59286;59.274;17.974;2023-03-21T07:19:24;154.48;;;12.52;;
71475;SDS011;59286;59.274;17.974;2023-03-21T07:21:50;48.50;;;6.72;;
71475;SDS011;59286;59.274;17.974;2023-03-21T07:24:16;75.25;;;11.68;;
71475;SDS011;59286;59.274;17.974;2023-03-21T07:26:41;39.15;;;9.73;;
71475;SDS011;59286;59.274;17.974;2023-03-21T07:29:06;76.05;;;13.18;;
71475;SDS011;59286;59.274;17.974;2023-03-21T07:31:32;34.05;;;8.85;;
71475;SDS011;59286;59.274;17.974;2023-03-21T07:33:57;12.90;;;7.45;;
71475;SDS011;59286;59.274;17.974;2023-03-21T07:36:22;29.95;;;9.57;;
71475;SDS011;59286;59.274;17.974;2023-03-21T07:38:48;25.80;;;9.80;;
71475;SDS011;59286;59.274;17.974;2023-03-21T07:41:13;52.80;;;10.30;;
71475;SDS011;59286;59.274;17.974;2023-03-21T07:43:38;44.67;;;9.93;;
71475;SDS011;59286;59.274;17.974;2023-03-21T07:46:04;16.45;;;9.88;;
71475;SDS011;59286;59.274;17.974;2023-03-21T07:48:29;19.33;;;9.27;;
71475;SDS011;59286;59.274;17.974;2023-03-21T07:50:55;10.35;;;6.65;;
71475;SDS011;59286;59.274;17.974;2023-03-21T07:53:20;19.98;;;8.48;;
71475;SDS011;59286;59.274;17.974;2023-03-21T07:55:50;7.70;;;5.97;;
71475;SDS011;59286;59.274;17.974;2023-03-21T07:58:20;6.97;;;5.85;;
71475;SDS011;59286;59.274;17.974;2023-03-21T08:00:46;8.35;;;6.45;;
71475;SDS011;59286;59.274;17.974;2023-03-21T08:03:12;11.13;;;6.85;;
71475;SDS011;59286;59.274;17.974;2023-03-21T08:05:38;12.63;;;6.20;;
71475;SDS011;59286;59.274;17.974;2023-03-21T08:08:05;5.20;;;4.70;;
71475;SDS011;59286;59.274;17.974;2023-03-21T08:10:30;6.40;;;5.80;;
71475;SDS011;59286;59.274;17.974;2023-03-21T08:12:56;7.18;;;4.15;;
71475;SDS011;59286;59.274;17.974;2023-03-21T08:15:21;6.22;;;4.88;;
71475;SDS011;59286;59.274;17.974;2023-03-21T08:17:47;5.38;;;4.88;;
71475;SDS011;59286;59.274;17.974;2023-03-21T08:20:13;6.95;;;4.68;;
71475;SDS011;59286;59.274;17.974;2023-03-21T08:22:42;3.78;;;3.35;;
71475;SDS011;59286;59.274;17.974;2023-03-21T08:25:08;5.00;;;4.05;;
71475;SDS011;59286;59.274;17.974;2023-03-21T08:27:38;6.25;;;3.67;;
71475;SDS011;59286;59.274;17.974;2023-03-21T08:30:08;3.50;;;3.20;;
71475;SDS011;59286;59.274;17.974;2023-03-21T08:32:34;5.15;;;2.78;;
71475;SDS011;59286;59.274;17.974;2023-03-21T08:35:02;6.90;;;3.13;;
71475;SDS011;59286;59.274;17.974;2023-03-21T08:37:34;6.85;;;3.13;;
71475;SDS011;59286;59.274;17.974;2023-03-21T08:40:00;3.25;;;2.85;;
71475;SDS011;59286;59.274;17.974;2023-03-21T08:42:25;3.63;;;2.28;;
71475;SDS011;59286;59.274;17.974;2023-03-21T08:44:51;3.08;;;2.50;;
71475;SDS011;59286;59.274;17.974;2023-03-21T08:47:16;2.40;;;2.20;;
71475;SDS011;59286;59.274;17.974;2023-03-21T08:49:42;3.88;;;2.40;;
71475;SDS011;59286;59.274;17.974;2023-03-21T08:52:09;4.18;;;1.95;;
71475;SDS011;59286;59.274;17.974;2023-03-21T08:54:35;5.85;;;2.10;;
71475;SDS011;59286;59.274;17.974;2023-03-21T08:57:00;1.85;;;1.65;;
71475;SDS011;59286;59.274;17.974;2023-03-21T08:59:26;3.63;;;1.73;;
71475;SDS011;59286;59.274;17.974;2023-03-21T09:01:51;2.15;;;1.67;;
71475;SDS011;59286;59.274;17.974;2023-03-21T09:04:17;2.80;;;1.60;;
71475;SDS011;59286;59.274;17.974;2023-03-21T09:06:43;5.57;;;1.90;;
71475;SDS011;59286;59.274;17.974;2023-03-21T09:09:10;3.53;;;1.73;;
71475;SDS011;59286;59.274;17.974;2023-03-21T09:11:36;3.63;;;1.35;;
71475;SDS011;59286;59.274;17.974;2023-03-21T09:14:02;2.55;;;1.38;;
71475;SDS011;59286;59.274;17.974;2023-03-21T09:16:27;3.35;;;1.55;;
71475;SDS011;59286;59.274;17.974;2023-03-21T09:18:53;3.40;;;1.77;;
71475;SDS011;59286;59.274;17.974;2023-03-21T09:21:21;3.03;;;1.50;;
71475;SDS011;59286;59.274;17.974;2023-03-21T09:23:48;4.35;;;1.65;;
71475;SDS011;59286;59.274;17.974;2023-03-21T09:26:16;2.75;;;1.35;;
71475;SDS011;59286;59.274;17.974;2023-03-21T09:28:43;6.63;;;1.55;;
71475;SDS011;59286;59.274;17.974;2023-03-21T09:31:10;3.45;;;1.60;;
71475;SDS011;59286;59.274;17.974;2023-03-21T09:33:36;3.90;;;1.52;;
71475;SDS011;59286;59.274;17.974;2023-03-21T09:36:04;2.67;;;1.63;;
71475;SDS011;59286;59.274;17.974;2023-03-21T09:38:38;2.65;;;1.27;;
71475;SDS011;59286;59.274;17.974;2023-03-21T09:46:50;6.55;;;1.42;;
71475;SDS011;59286;59.274;17.974;2023-03-21T09:49:24;2.78;;;1.30;;
71475;SDS011;59286;59.274;17.974;2023-03-21T09:54:30;3.60;;;1.40;;
71475;SDS011;59286;59.274;17.974;2023-03-21T09:57:03;2.50;;;1.45;;
71475;SDS011;59286;59.274;17.974;2023-03-21T09:59:40;2.75;;;1.30;;
71475;SDS011;59286;59.274;17.974;2023-03-21T10:05:08;3.15;;;1.10;;
71475;SDS011;59286;59.274;17.974;2023-03-21T10:07:41;1.58;;;0.90;;
71475;SDS011;59286;59.274;17.974;2023-03-21T10:10:21;4.78;;;0.95;;
71475;SDS011;59286;59.274;17.974;2023-03-21T10:12:51;2.38;;;1.27;;
71475;SDS011;59286;59.274;17.974;2023-03-21T10:15:19;2.72;;;1.40;;
71475;SDS011;59286;59.274;17.974;2023-03-21T10:17:48;6.97;;;1.30;;
71475;SDS011;59286;59.274;17.974;2023-03-21T10:20:23;1.42;;;0.82;;
71475;SDS011;59286;59.274;17.974;2023-03-21T10:23:00;1.88;;;0.80;;
71475;SDS011;59286;59.274;17.974;2023-03-21T10:25:32;2.88;;;0.90;;
71475;SDS011;59286;59.274;17.974;2023-03-21T10:28:01;2.97;;;0.70;;
71475;SDS011;59286;59.274;17.974;2023-03-21T10:30:47;3.47;;;0.63;;
71475;SDS011;59286;59.274;17.974;2023-03-21T10:33:17;4.20;;;0.90;;
71475;SDS011;59286;59.274;17.974;2023-03-21T10:35:54;3.95;;;0.80;;
71475;SDS011;59286;59.274;17.974;2023-03-21T10:38:23;5.45;;;0.90;;
71475;SDS011;59286;59.274;17.974;2023-03-21T10:40:50;1.55;;;0.80;;
71475;SDS011;59286;59.274;17.974;2023-03-21T10:43:17;0.55;;;0.40;;
71475;SDS011;59286;59.274;17.974;2023-03-21T10:45:52;5.90;;;0.75;;
71475;SDS011;59286;59.274;17.974;2023-03-21T10:48:18;0.85;;;0.40;;
71475;SDS011;59286;59.274;17.974;2023-03-21T10:50:46;1.48;;;0.35;;
71475;SDS011;59286;59.274;17.974;2023-03-21T10:53:18;0.35;;;0.30;;
71475;SDS011;59286;59.274;17.974;2023-03-21T10:55:47;2.00;;;0.50;;
71475;SDS011;59286;59.274;17.974;2023-03-21T10:58:20;5.85;;;0.70;;
71475;SDS011;59286;59.274;17.974;2023-03-21T11:01:04;4.05;;;0.75;;
71475;SDS011;59286;59.274;17.974;2023-03-21T11:03:36;6.13;;;0.68;;
71475;SDS011;59286;59.274;17.974;2023-03-21T11:06:10;3.72;;;0.80;;
71475;SDS011;59286;59.274;17.974;2023-03-21T11:08:43;2.25;;;0.70;;
71475;SDS011;59286;59.274;17.974;2023-03-21T11:11:18;1.92;;;0.50;;
71475;SDS011;59286;59.274;17.974;2023-03-21T11:13:46;1.45;;;0.40;;
71475;SDS011;59286;59.274;17.974;2023-03-21T11:16:31;5.47;;;0.40;;
71475;SDS011;59286;59.274;17.974;2023-03-21T11:19:11;2.00;;;0.60;;
71475;SDS011;59286;59.274;17.974;2023-03-21T11:21:37;8.45;;;0.50;;
71475;SDS011;59286;59.274;17.974;2023-03-21T11:24:03;0.65;;;0.40;;
71475;SDS011;59286;59.274;17.974;2023-03-21T11:26:34;0.38;;;0.28;;
71475;SDS011;59286;59.274;17.974;2023-03-21T11:31:48;0.98;;;0.43;;
71475;SDS011;59286;59.274;17.974;2023-03-21T11:34:23;2.45;;;0.50;;
71475;SDS011;59286;59.274;17.974;2023-03-21T11:36:52;2.65;;;0.38;;
71475;SDS011;59286;59.274;17.974;2023-03-21T11:39:30;3.03;;;0.50;;
71475;SDS011;59286;59.274;17.974;2023-03-21T11:42:05;1.60;;;0.38;;
71475;SDS011;59286;59.274;17.974;2023-03-21T11:44:56;0.50;;;0.35;;
71475;SDS011;59286;59.274;17.974;2023-03-21T11:47:25;1.10;;;0.40;;
71475;SDS011;59286;59.274;17.974;2023-03-21T11:49:51;2.33;;;0.40;;
71475;SDS011;59286;59.274;17.974;2023-03-21T11:52:26;0.38;;;0.30;;
71475;SDS011;59286;59.274;17.974;2023-03-21T11:55:17;3.75;;;0.40;;
71475;SDS011;59286;59.274;17.974;2023-03-21T12:03:58;2.95;;;0.52;;
71475;SDS011;59286;59.274;17.974;2023-03-21T12:06:36;1.27;;;0.30;;
71475;SDS011;59286;59.274;17.974;2023-03-21T12:12:05;1.17;;;0.30;;
71475;SDS011;59286;59.274;17.974;2023-03-21T12:14:49;1.63;;;0.40;;
71475;SDS011;59286;59.274;17.974;2023-03-21T12:17:19;1.63;;;0.40;;
71475;SDS011;59286;59.274;17.974;2023-03-21T12:20:00;3.13;;;0.32;;
71475;SDS011;59286;59.274;17.974;2023-03-21T12:25:06;0.65;;;0.20;;
71475;SDS011;59286;59.274;17.974;2023-03-21T12:38:22;0.20;;;0.20;;
71475;SDS011;59286;59.274;17.974;2023-03-21T12:43:40;0.22;;;0.22;;
71475;SDS011;59286;59.274;17.974;2023-03-21T12:46:56;1.55;;;0.38;;
71475;SDS011;59286;59.274;17.974;2023-03-21T12:51:38;1.15;;;0.47;;
71475;SDS011;59286;59.274;17.974;2023-03-21T12:56:54;3.40;;;0.30;;
71475;SDS011;59286;59.274;17.974;2023-03-21T12:59:34;0.70;;;0.30;;
71475;SDS011;59286;59.274;17.974;2023-03-21T13:07:58;0.40;;;0.40;;
71475;SDS011;59286;59.274;17.974;2023-03-21T13:10:27;2.50;;;0.30;;
71475;SDS011;59286;59.274;17.974;2023-03-21T13:24:01;0.50;;;0.40;;
71475;SDS011;59286;59.274;17.974;2023-03-21T13:26:37;1.88;;;0.45;;
71475;SDS011;59286;59.274;17.974;2023-03-21T13:29:11;1.10;;;0.38;;
71475;SDS011;59286;59.274;17.974;2023-03-21T13:31:42;3.10;;;0.40;;
71475;SDS011;59286;59.274;17.974;2023-03-21T13:34:09;3.00;;;0.35;;
71475;SDS011;59286;59.274;17.974;2023-03-21T13:36:35;0.88;;;0.30;;
71475;SDS011;59286;59.274;17.974;2023-03-21T13:39:02;2.63;;;0.30;;
71475;SDS011;59286;59.274;17.974;2023-03-21T13:41:31;3.72;;;0.32;;
71475;SDS011;59286;59.274;17.974;2023-03-21T13:54:16;1.75;;;0.40;;
71475;SDS011;59286;59.274;17.974;2023-03-21T13:59:10;2.70;;;0.40;;
71475;SDS011;59286;59.274;17.974;2023-03-21T14:01:58;1.38;;;0.40;;
71475;SDS011;59286;59.274;17.974;2023-03-21T14:04:33;0.88;;;0.35;;
71475;SDS011;59286;59.274;17.974;2023-03-21T14:07:15;2.22;;;0.32;;
71475;SDS011;59286;59.274;17.974;2023-03-21T14:09:46;0.90;;;0.30;;
71475;SDS011;59286;59.274;17.974;2023-03-21T14:12:16;2.10;;;0.38;;
71475;SDS011;59286;59.274;17.974;2023-03-21T14:14:51;2.72;;;0.40;;
71475;SDS011;59286;59.274;17.974;2023-03-21T14:17:26;1.40;;;0.40;;
71475;SDS011;59286;59.274;17.974;2023-03-21T14:19:59;3.22;;;0.30;;
71475;SDS011;59286;59.274;17.974;2023-03-21T14:22:30;3.17;;;0.50;;
71475;SDS011;59286;59.274;17.974;2023-03-21T14:24:59;2.20;;;0.25;;
71475;SDS011;59286;59.274;17.974;2023-03-21T14:27:30;2.15;;;0.20;;
71475;SDS011;59286;59.274;17.974;2023-03-21T14:29:57;3.03;;;0.57;;
71475;SDS011;59286;59.274;17.974;2023-03-21T14:32:25;2.05;;;0.50;;
71475;SDS011;59286;59.274;17.974;2023-03-21T14:34:53;5.60;;;0.57;;
71475;SDS011;59286;59.274;17.974;2023-03-21T14:37:30;3.58;;;0.90;;
71475;SDS011;59286;59.274;17.974;2023-03-21T14:40:05;2.20;;;0.52;;
71475;SDS011;59286;59.274;17.974;2023-03-21T14:42:45;1.55;;;0.40;;
71475;SDS011;59286;59.274;17.974;2023-03-21T14:45:16;1.63;;;0.40;;
71475;SDS011;59286;59.274;17.974;2023-03-21T14:50:24;0.57;;;0.40;;
71475;SDS011;59286;59.274;17.974;2023-03-21T14:52:55;1.45;;;0.30;;
71475;SDS011;59286;59.274;17.974;2023-03-21T14:55:22;2.35;;;0.80;;
71475;SDS011;59286;59.274;17.974;2023-03-21T14:57:47;1.98;;;0.70;;
71475;SDS011;59286;59.274;17.974;2023-03-21T15:00:17;1.60;;;0.50;;
71475;SDS011;59286;59.274;17.974;2023-03-21T15:02:47;3.90;;;0.68;;
71475;SDS011;59286;59.274;17.974;2023-03-21T15:07:57;4.57;;;0.43;;
71475;SDS011;59286;59.274;17.974;2023-03-21T15:10:25;1.15;;;0.40;;
71475;SDS011;59286;59.274;17.974;2023-03-21T15:12:56;1.60;;;0.80;;
71475;SDS011;59286;59.274;17.974;2023-03-21T15:15:24;1.20;;;0.60;;
71475;SDS011;59286;59.274;17.974;2023-03-21T15:17:52;0.40;;;0.40;;
71475;SDS011;59286;59.274;17.974;2023-03-21T15:20:21;1.00;;;0.40;;
71475;SDS011;59286;59.274;17.974;2023-03-21T15:22:54;3.03;;;0.40;;
71475;SDS011;59286;59.274;17.974;2023-03-21T15:25:24;3.90;;;0.50;;
71475;SDS011;59286;59.274;17.974;2023-03-21T15:27:52;2.30;;;0.30;;
71475;SDS011;59286;59.274;17.974;2023-03-21T15:30:21;1.15;;;0.50;;
71475;SDS011;59286;59.274;17.974;2023-03-21T15:32:49;0.90;;;0.20;;
71475;SDS011;59286;59.274;17.974;2023-03-21T15:35:17;4.78;;;0.40;;
71475;SDS011;59286;59.274;17.974;2023-03-21T15:37:56;3.60;;;0.30;;
71475;SDS011;59286;59.274;17.974;2023-03-21T15:40:26;1.98;;;0.40;;
71475;SDS011;59286;59.274;17.974;2023-03-21T15:43:03;0.68;;;0.40;;
71475;SDS011;59286;59.274;17.974;2023-03-21T15:45:52;2.90;;;0.98;;
71475;SDS011;59286;59.274;17.974;2023-03-21T15:48:26;0.65;;;0.40;;
71475;SDS011;59286;59.274;17.974;2023-03-21T15:51:03;3.08;;;0.50;;
71475;SDS011;59286;59.274;17.974;2023-03-21T15:53:31;2.83;;;0.57;;
71475;SDS011;59286;59.274;17.974;2023-03-21T15:55:58;4.28;;;0.50;;
71475;SDS011;59286;59.274;17.974;2023-03-21T15:58:26;0.98;;;0.60;;
71475;SDS011;59286;59.274;17.974;2023-03-21T16:01:02;5.40;;;0.55;;
71475;SDS011;59286;59.274;17.974;2023-03-21T16:03:34;1.13;;;0.60;;
71475;SDS011;59286;59.274;17.974;2023-03-21T16:08:44;4.05;;;0.63;;
71475;SDS011;59286;59.274;17.974;2023-03-21T16:11:24;2.60;;;0.40;;
71475;SDS011;59286;59.274;17.974;2023-03-21T16:13:52;1.50;;;0.52;;
71475;SDS011;59286;59.274;17.974;2023-03-21T16:16:20;2.42;;;0.50;;
71475;SDS011;59286;59.274;17.974;2023-03-21T16:18:47;1.00;;;0.35;;
71475;SDS011;59286;59.274;17.974;2023-03-21T16:21:14;2.72;;;0.73;;
71475;SDS011;59286;59.274;17.974;2023-03-21T16:23:40;2.53;;;0.70;;
71475;SDS011;59286;59.274;17.974;2023-03-21T16:26:09;3.17;;;0.70;;
71475;SDS011;59286;59.274;17.974;2023-03-21T16:28:37;0.50;;;0.50;;
71475;SDS011;59286;59.274;17.974;2023-03-21T16:31:02;2.05;;;0.70;;